Time;durP1;ratioP1;P1;durP2;ratioP2;P2;SDS_P1;SDS_P2;PMS_P1;PMS_P2;Temp;Humidity;BMP_temperature;BMP_pressure;BME280_temperature;BME280_humidity;BME280_pressure;Samples;Min_cycle;Max_cycle;Signal;HPM_P1;HPM_P2
2022/08/23 00:00:30;;;;;;;4.75;1.83;;;21.10;73.60;;;;;;5045758;28;20033;-59
2022/08/23 00:02:56;;;;;;;5.28;1.95;;;21.10;73.70;;;;;;5025011;28;20457;-58
2022/08/23 00:05:22;;;;;;;3.75;1.95;;;21.10;73.90;;;;;;5043931;28;20520;-57
2022/08/23 00:07:47;;;;;;;4.45;1.60;;;21.00;74.00;;;;;;5050115;28;20021;-57
2022/08/23 00:10:15;;;;;;;3.40;1.58;;;21.00;74.40;;;;;;5040501;28;20072;-58
2022/08/23 00:12:42;;;;;;;4.55;1.95;;;21.00;74.50;;;;;;5043406;28;20450;-58
2022/08/23 00:15:11;;;;;;;4.47;1.95;;;20.90;74.50;;;;;;5037480;28;20037;-57
2022/08/23 00:17:37;;;;;;;4.47;2.15;;;20.90;74.70;;;;;;5039977;28;20498;-57
2022/08/23 00:20:06;;;;;;;2.55;1.83;;;20.90;74.90;;;;;;5042279;28;20068;-57
2022/08/23 00:22:32;;;;;;;3.72;1.80;;;20.90;75.00;;;;;;5041229;28;20046;-57
2022/08/23 00:24:57;;;;;;;3.25;1.60;;;20.80;75.00;;;;;;5036748;28;20060;-57
2022/08/23 00:27:23;;;;;;;4.75;2.00;;;20.70;75.20;;;;;;5032489;28;20056;-58
2022/08/23 00:29:51;;;;;;;5.20;2.45;;;20.70;75.30;;;;;;5040458;28;20025;-58
2022/08/23 00:32:26;;;;;;;5.20;2.28;;;20.60;75.50;;;;;;5044285;28;20060;-57
2022/08/23 00:34:52;;;;;;;4.47;2.15;;;20.70;75.60;;;;;;5040350;28;20024;-58
2022/08/23 00:37:19;;;;;;;3.40;2.10;;;20.60;75.80;;;;;;5046841;28;20029;-58
2022/08/23 00:39:45;;;;;;;5.20;2.28;;;20.60;75.90;;;;;;5042258;28;20401;-57
2022/08/23 00:47:38;;;;;;;3.28;2.08;;;20.50;75.90;;;;;;5036293;28;20071;-57
2022/08/23 00:48:10;;;;;;;4.03;2.10;;;20.50;76.30;;;;;;5032577;28;20082;-58
2022/08/23 00:50:47;;;;;;;6.55;2.05;;;20.40;76.50;;;;;;5032019;28;20021;-57
2022/08/23 00:53:21;;;;;;;3.63;1.83;;;20.40;77.00;;;;;;5041407;28;20036;-58
2022/08/23 00:55:50;;;;;;;5.05;2.17;;;20.30;77.10;;;;;;5035400;28;20030;-57
2022/08/23 00:58:18;;;;;;;3.25;2.15;;;20.30;77.50;;;;;;5044844;28;20053;-57
2022/08/23 01:00:46;;;;;;;5.50;2.70;;;20.20;77.80;;;;;;5043062;28;20025;-57
2022/08/23 01:03:12;;;;;;;5.03;2.25;;;20.20;77.90;;;;;;5035863;28;20452;-57
2022/08/23 01:06:14;;;;;;;5.38;2.40;;;20.10;78.00;;;;;;5046980;28;20057;-57
2022/08/23 01:08:47;;;;;;;4.45;2.58;;;20.10;78.00;;;;;;5038929;28;20021;-57
2022/08/23 01:11:20;;;;;;;5.97;2.42;;;20.00;78.40;;;;;;5033533;28;20057;-58
2022/08/23 01:13:55;;;;;;;6.40;2.95;;;20.00;78.50;;;;;;5034104;28;20055;-57
2022/08/23 01:16:27;;;;;;;6.20;2.88;;;20.00;78.70;;;;;;5038039;28;20388;-57
2022/08/23 01:18:54;;;;;;;4.72;2.90;;;19.90;78.90;;;;;;5043526;28;20024;-57
2022/08/23 01:21:46;;;;;;;4.82;2.78;;;19.80;79.00;;;;;;5037683;28;20402;-57
2022/08/23 01:24:13;;;;;;;6.30;3.08;;;19.80;79.00;;;;;;5036212;28;20057;-57
2022/08/23 01:26:38;;;;;;;4.53;2.80;;;19.70;79.30;;;;;;5038659;28;20021;-57
2022/08/23 01:29:06;;;;;;;5.38;3.28;;;19.70;79.40;;;;;;5042244;28;20021;-57
2022/08/23 01:31:34;;;;;;;6.03;3.00;;;19.70;79.50;;;;;;5036914;28;20028;-57
2022/08/23 01:34:02;;;;;;;5.07;3.20;;;19.70;79.60;;;;;;5044629;28;20071;-57
2022/08/23 01:36:29;;;;;;;5.03;3.20;;;19.70;79.80;;;;;;5041527;28;20033;-57
2022/08/23 01:38:54;;;;;;;5.22;2.95;;;19.60;79.90;;;;;;5038433;28;20374;-57
2022/08/23 01:41:20;;;;;;;4.32;2.75;;;19.60;80.00;;;;;;5049534;28;20136;-57
2022/08/23 01:43:46;;;;;;;4.03;3.17;;;19.50;80.20;;;;;;5044649;28;20029;-58
2022/08/23 01:46:18;;;;;;;4.20;3.28;;;19.50;80.50;;;;;;5031878;28;20031;-58
2022/08/23 01:48:45;;;;;;;6.45;3.42;;;19.50;80.60;;;;;;5046661;28;20025;-58
2022/08/23 01:51:13;;;;;;;5.68;3.22;;;19.50;81.00;;;;;;5040457;28;20025;-56
2022/08/23 01:53:39;;;;;;;4.95;3.10;;;19.40;81.40;;;;;;5027451;28;20035;-58
2022/08/23 01:56:07;;;;;;;6.03;3.28;;;19.40;81.90;;;;;;5044310;28;20543;-58
2022/08/23 01:58:33;;;;;;;4.45;3.22;;;19.30;82.10;;;;;;5044683;28;20039;-57
2022/08/23 02:01:00;;;;;;;3.95;3.20;;;19.30;82.30;;;;;;5039482;28;20409;-58
2022/08/23 02:03:27;;;;;;;5.05;3.70;;;19.30;82.50;;;;;;5044757;28;20025;-58
2022/08/23 02:05:54;;;;;;;6.80;3.88;;;19.20;82.70;;;;;;5042337;28;20074;-58
2022/08/23 02:11:10;;;;;;;5.75;3.35;;;19.30;83.00;;;;;;5039054;28;20083;-57
2022/08/23 02:13:35;;;;;;;4.72;3.38;;;19.20;83.10;;;;;;5044053;28;20053;-57
2022/08/23 02:16:01;;;;;;;4.63;3.72;;;19.20;83.30;;;;;;5046161;28;20060;-58
2022/08/23 02:18:28;;;;;;;5.38;3.40;;;19.20;83.40;;;;;;5044539;28;20035;-58
2022/08/23 02:20:53;;;;;;;5.75;3.28;;;19.20;83.60;;;;;;5045041;28;20033;-57
2022/08/23 02:23:20;;;;;;;5.45;3.08;;;19.20;83.80;;;;;;5037298;28;20052;-57
2022/08/23 02:25:46;;;;;;;5.60;3.17;;;19.10;83.90;;;;;;5042221;28;20017;-57
2022/08/23 02:28:12;;;;;;;4.15;3.58;;;19.10;84.20;;;;;;5042389;28;20370;-57
2022/08/23 02:30:38;;;;;;;4.00;3.25;;;19.10;84.40;;;;;;5042681;28;20025;-58
2022/08/23 02:33:04;;;;;;;4.60;2.97;;;19.10;84.70;;;;;;5037319;28;20076;-57
2022/08/23 02:35:32;;;;;;;4.38;3.13;;;19.10;84.90;;;;;;5039505;28;20037;-56
2022/08/23 02:37:57;;;;;;;3.92;2.88;;;19.00;85.10;;;;;;5045722;28;20107;-56
2022/08/23 02:40:23;;;;;;;5.10;3.13;;;19.00;85.40;;;;;;5034098;28;20438;-57
2022/08/23 02:42:48;;;;;;;6.70;3.13;;;19.00;85.50;;;;;;5045424;28;20048;-57
2022/08/23 02:45:14;;;;;;;5.55;3.40;;;19.00;85.60;;;;;;5028146;28;20025;-56
2022/08/23 02:47:40;;;;;;;5.07;3.40;;;19.10;85.80;;;;;;5034722;28;20025;-57
2022/08/23 02:50:07;;;;;;;6.28;3.22;;;19.00;85.80;;;;;;5046660;28;20032;-58
2022/08/23 02:52:33;;;;;;;6.82;3.80;;;19.00;86.00;;;;;;5039719;28;20030;-56
2022/08/23 02:54:59;;;;;;;5.78;4.00;;;19.00;86.00;;;;;;5043293;28;20379;-57
2022/08/23 02:57:25;;;;;;;4.55;3.65;;;19.00;86.10;;;;;;5041309;28;20025;-57
2022/08/23 02:59:51;;;;;;;3.92;3.53;;;19.00;86.30;;;;;;5035413;28;20421;-57
2022/08/23 03:02:17;;;;;;;5.35;4.07;;;19.00;86.40;;;;;;5037517;28;20535;-57
2022/08/23 03:04:42;;;;;;;6.88;3.55;;;18.90;86.50;;;;;;5044952;28;20032;-57
2022/08/23 03:07:08;;;;;;;4.50;3.85;;;18.90;86.60;;;;;;5037339;28;20021;-57
2022/08/23 03:09:34;;;;;;;6.13;4.30;;;18.90;86.70;;;;;;5043697;28;20025;-57
2022/08/23 03:11:59;;;;;;;5.05;3.97;;;18.90;86.90;;;;;;5032937;28;20105;-57
2022/08/23 03:14:26;;;;;;;4.90;3.67;;;18.90;87.10;;;;;;5042514;28;20052;-58
2022/08/23 03:16:52;;;;;;;4.10;3.70;;;18.80;87.20;;;;;;5040102;28;20024;-57
2022/08/23 03:19:18;;;;;;;7.22;4.35;;;18.80;87.40;;;;;;5030176;28;20414;-58
2022/08/23 03:21:44;;;;;;;5.43;4.03;;;18.70;87.50;;;;;;5048706;28;20100;-58
2022/08/23 03:24:10;;;;;;;7.05;4.30;;;18.70;87.70;;;;;;5038770;28;20055;-58
2022/08/23 03:26:35;;;;;;;5.88;4.20;;;18.70;87.90;;;;;;5027138;28;20029;-57
2022/08/23 03:29:02;;;;;;;4.85;3.65;;;18.70;88.00;;;;;;5039890;28;20021;-55
2022/08/23 03:31:28;;;;;;;7.30;4.25;;;18.70;88.10;;;;;;5044245;28;20029;-58
2022/08/23 03:33:53;;;;;;;6.10;3.97;;;18.60;88.20;;;;;;5035378;28;20029;-57
2022/08/23 03:36:19;;;;;;;6.45;3.97;;;18.60;88.40;;;;;;5037998;28;20033;-57
2022/08/23 03:38:45;;;;;;;7.13;4.38;;;18.50;88.70;;;;;;5038906;28;20457;-57
2022/08/23 03:41:11;;;;;;;5.50;4.35;;;18.50;89.00;;;;;;5038651;28;20033;-56
2022/08/23 03:43:37;;;;;;;7.15;4.45;;;18.40;89.00;;;;;;5039345;28;20042;-55
2022/08/23 03:46:04;;;;;;;6.72;4.68;;;18.40;89.10;;;;;;5038642;28;20045;-57
2022/08/23 03:48:30;;;;;;;6.07;4.60;;;18.40;89.20;;;;;;5048776;28;20021;-57
2022/08/23 03:50:55;;;;;;;5.32;4.40;;;18.40;89.30;;;;;;5035506;28;20025;-57
2022/08/23 03:53:22;;;;;;;8.95;4.53;;;18.30;89.30;;;;;;5038095;28;20111;-57
2022/08/23 03:55:49;;;;;;;8.13;4.53;;;18.30;89.40;;;;;;5051632;28;20035;-57
2022/08/23 03:58:15;;;;;;;7.22;4.82;;;18.30;89.60;;;;;;5042785;28;20475;-57
2022/08/23 04:00:40;;;;;;;5.00;4.35;;;18.30;89.60;;;;;;5044898;28;20032;-57
2022/08/23 04:03:06;;;;;;;5.72;4.22;;;18.30;89.60;;;;;;5057456;28;20036;-58
2022/08/23 04:05:31;;;;;;;6.40;5.15;;;18.30;89.60;;;;;;5044437;28;20492;-58
2022/08/23 04:07:57;;;;;;;4.78;4.32;;;18.30;89.70;;;;;;5040541;28;20028;-57
2022/08/23 04:10:23;;;;;;;5.68;4.40;;;18.40;89.70;;;;;;5043132;28;20029;-58
2022/08/23 04:12:48;;;;;;;7.88;4.63;;;18.40;89.70;;;;;;5042560;28;20024;-57
2022/08/23 04:15:14;;;;;;;5.43;4.93;;;18.40;89.80;;;;;;5033360;28;20561;-57
2022/08/23 04:17:41;;;;;;;5.50;4.38;;;18.40;89.80;;;;;;5047664;28;20033;-57
2022/08/23 04:20:07;;;;;;;5.40;4.53;;;18.40;89.70;;;;;;5041811;28;20071;-58
2022/08/23 04:22:33;;;;;;;5.30;4.78;;;18.40;89.80;;;;;;5043458;28;20026;-57
2022/08/23 04:25:00;;;;;;;5.80;4.38;;;18.40;89.90;;;;;;5047271;28;20032;-58
2022/08/23 04:27:26;;;;;;;5.00;4.50;;;18.40;90.00;;;;;;5040746;28;20024;-58
2022/08/23 04:29:51;;;;;;;6.85;4.13;;;18.40;90.10;;;;;;5038441;28;20021;-58
2022/08/23 04:32:17;;;;;;;7.00;4.32;;;18.40;90.10;;;;;;5046496;28;20025;-58
2022/08/23 04:34:43;;;;;;;5.07;4.57;;;18.40;90.20;;;;;;5044691;28;20105;-58
2022/08/23 04:37:11;;;;;;;4.47;4.05;;;18.40;90.20;;;;;;5025633;28;20018;-57
2022/08/23 04:42:22;;;;;;;5.88;4.30;;;18.40;90.40;;;;;;5041626;28;20128;-58
2022/08/23 04:44:49;;;;;;;5.32;4.13;;;18.30;90.40;;;;;;5044371;28;20036;-57
2022/08/23 04:47:14;;;;;;;5.18;4.00;;;18.30;90.50;;;;;;5039438;28;20040;-57
2022/08/23 04:49:40;;;;;;;4.68;4.18;;;18.30;90.50;;;;;;5040122;28;20021;-57
2022/08/23 04:52:05;;;;;;;5.65;4.30;;;18.30;90.60;;;;;;5045852;28;20025;-58
2022/08/23 04:54:31;;;;;;;6.40;4.88;;;18.30;90.70;;;;;;5042307;28;20049;-58
2022/08/23 04:56:57;;;;;;;6.47;4.45;;;18.30;90.70;;;;;;5034060;28;20397;-58
2022/08/23 04:59:22;;;;;;;5.65;4.68;;;18.30;90.80;;;;;;5043056;28;20017;-57
2022/08/23 05:01:49;;;;;;;5.60;4.00;;;18.30;90.80;;;;;;5049010;28;20431;-58
2022/08/23 05:04:15;;;;;;;9.00;5.68;;;18.30;90.90;;;;;;5048273;28;20024;-58
2022/08/23 05:06:41;;;;;;;6.97;4.88;;;18.40;91.00;;;;;;5040856;28;20053;-57
2022/08/23 05:09:07;;;;;;;7.05;5.00;;;18.30;91.10;;;;;;5046203;28;20048;-58
2022/08/23 05:11:33;;;;;;;7.15;4.68;;;18.30;91.20;;;;;;5044296;28;20029;-58
2022/08/23 05:13:58;;;;;;;7.22;4.72;;;18.40;91.30;;;;;;5049772;28;20402;-57
2022/08/23 05:16:24;;;;;;;7.32;4.88;;;18.40;91.30;;;;;;5046378;28;20122;-57
2022/08/23 05:18:50;;;;;;;5.93;4.75;;;18.40;91.40;;;;;;5044458;28;20227;-58
2022/08/23 05:21:19;;;;;;;6.10;4.85;;;18.40;91.50;;;;;;5041600;28;20105;-57
2022/08/23 05:23:44;;;;;;;6.25;4.88;;;18.40;91.50;;;;;;5018574;28;20379;-57
2022/08/23 05:26:10;;;;;;;5.85;4.80;;;18.40;91.60;;;;;;5018203;28;20040;-57
2022/08/23 05:28:39;;;;;;;7.30;4.38;;;18.50;91.60;;;;;;5036347;28;20018;-58
2022/08/23 05:31:07;;;;;;;6.68;5.03;;;18.50;91.70;;;;;;5029799;28;20172;-57
2022/08/23 05:33:34;;;;;;;5.78;4.65;;;18.50;91.70;;;;;;5025645;28;20029;-58
2022/08/23 05:36:02;;;;;;;5.47;4.88;;;18.50;91.70;;;;;;5025471;28;20021;-58
2022/08/23 05:38:27;;;;;;;7.00;5.07;;;18.60;91.70;;;;;;5037603;28;20028;-57
2022/08/23 05:40:56;;;;;;;7.07;5.32;;;18.60;91.70;;;;;;5036008;28;20029;-57
2022/08/23 05:43:23;;;;;;;6.35;5.25;;;18.60;91.70;;;;;;5029785;28;20497;-56
2022/08/23 05:46:03;;;;;;;6.18;4.53;;;18.60;91.80;;;;;;5022664;28;20026;-57
2022/08/23 05:48:29;;;;;;;6.95;4.97;;;18.70;91.90;;;;;;5012392;28;20026;-57
2022/08/23 05:50:54;;;;;;;6.53;5.18;;;18.70;91.90;;;;;;5013591;28;20034;-58
2022/08/23 05:53:20;;;;;;;6.95;4.55;;;18.70;92.00;;;;;;5019441;28;20421;-58
2022/08/23 05:55:46;;;;;;;5.55;5.05;;;18.70;92.00;;;;;;5020684;28;20442;-57
2022/08/23 05:58:11;;;;;;;6.82;5.10;;;18.80;92.10;;;;;;5028656;28;20037;-57
2022/08/23 06:00:37;;;;;;;7.18;5.28;;;18.80;92.10;;;;;;5020419;28;20025;-57
2022/08/23 06:03:02;;;;;;;7.22;4.72;;;18.80;92.10;;;;;;5020161;28;20025;-57
2022/08/23 06:05:28;;;;;;;6.40;4.50;;;18.80;92.10;;;;;;5019140;28;20017;-58
2022/08/23 06:07:54;;;;;;;6.20;5.18;;;18.90;92.20;;;;;;5031474;28;20018;-57
2022/08/23 06:10:20;;;;;;;6.03;5.45;;;19.00;92.20;;;;;;5019146;28;20083;-57
2022/08/23 06:12:46;;;;;;;8.15;6.10;;;19.00;92.20;;;;;;5013428;28;20018;-57
2022/08/23 06:15:12;;;;;;;8.60;5.55;;;19.10;92.30;;;;;;5020570;28;20521;-58
2022/08/23 06:17:38;;;;;;;6.68;4.88;;;19.10;92.30;;;;;;5035507;28;20113;-56
2022/08/23 06:20:05;;;;;;;8.50;5.80;;;19.10;92.30;;;;;;5020460;28;20026;-58
2022/08/23 06:22:31;;;;;;;6.25;5.30;;;19.20;92.30;;;;;;5026316;28;20033;-57
2022/08/23 06:24:56;;;;;;;7.03;5.53;;;19.20;92.30;;;;;;5029659;28;20029;-57
2022/08/23 06:27:22;;;;;;;6.45;5.28;;;19.30;92.30;;;;;;5026250;28;20025;-57
2022/08/23 06:29:48;;;;;;;8.48;5.82;;;19.40;92.30;;;;;;5041236;28;20026;-57
2022/08/23 06:32:13;;;;;;;6.50;5.90;;;19.40;92.20;;;;;;5028182;28;20022;-57
2022/08/23 06:34:39;;;;;;;8.38;5.25;;;19.50;92.10;;;;;;5040578;28;20112;-57
2022/08/23 06:37:13;;;;;;;7.75;6.10;;;19.60;92.00;;;;;;5015541;28;20050;-57
2022/08/23 06:39:40;;;;;;;8.77;5.47;;;19.70;91.90;;;;;;5013163;28;20034;-56
2022/08/23 06:42:10;;;;;;;9.95;5.97;;;19.80;91.90;;;;;;5029513;28;20064;-57
2022/08/23 06:44:35;;;;;;;7.32;6.43;;;19.80;91.80;;;;;;5019584;28;20093;-57
2022/08/23 06:47:03;;;;;;;9.63;8.73;;;19.90;91.70;;;;;;5012983;28;20105;-58
2022/08/23 06:49:28;;;;;;;8.40;6.40;;;20.00;91.60;;;;;;5012452;28;20068;-58
2022/08/23 06:51:56;;;;;;;8.07;7.25;;;20.10;91.40;;;;;;5031968;28;20021;-57
2022/08/23 06:54:26;;;;;;;9.48;6.40;;;20.10;91.30;;;;;;5025369;28;20060;-57
2022/08/23 06:56:52;;;;;;;9.45;7.07;;;20.20;91.20;;;;;;5019126;28;20462;-57
2022/08/23 06:59:19;;;;;;;7.30;5.43;;;20.30;91.20;;;;;;5013837;28;20026;-58
2022/08/23 07:01:49;;;;;;;7.28;5.88;;;20.40;91.00;;;;;;5030970;28;20032;-58
2022/08/23 07:04:21;;;;;;;7.20;5.82;;;20.50;90.80;;;;;;5025876;28;20526;-57
2022/08/23 07:06:47;;;;;;;13.65;8.90;;;20.60;90.70;;;;;;5014953;28;20138;-57
2022/08/23 07:09:14;;;;;;;8.98;7.85;;;20.60;90.50;;;;;;5012450;28;20109;-57
2022/08/23 07:11:40;;;;;;;12.80;8.65;;;20.70;90.30;;;;;;5022859;28;20073;-58
2022/08/23 07:14:12;;;;;;;10.38;6.93;;;20.80;90.10;;;;;;5025473;28;20159;-57
2022/08/23 07:16:42;;;;;;;8.68;6.43;;;20.90;89.70;;;;;;5015129;28;20058;-57
2022/08/23 07:19:08;;;;;;;8.93;6.75;;;20.90;89.30;;;;;;5018079;28;20025;-57
2022/08/23 07:21:34;;;;;;;12.10;9.00;;;21.00;88.80;;;;;;5014271;28;20022;-57
2022/08/23 07:24:00;;;;;;;11.02;9.85;;;21.00;87.90;;;;;;5025422;28;20037;-59
2022/08/23 07:26:25;;;;;;;12.00;9.25;;;21.10;87.60;;;;;;5020705;28;20018;-58
2022/08/23 07:28:51;;;;;;;11.52;7.60;;;21.20;87.40;;;;;;5032008;28;20040;-57
2022/08/23 07:31:26;;;;;;;13.15;9.75;;;21.20;87.30;;;;;;5023464;28;20022;-58
2022/08/23 07:33:53;;;;;;;12.63;10.73;;;21.30;86.40;;;;;;5018780;28;20425;-58
2022/08/23 07:36:21;;;;;;;10.10;8.48;;;21.40;85.90;;;;;;5016511;28;20021;-57
2022/08/23 07:38:47;;;;;;;14.85;9.25;;;21.40;85.40;;;;;;5016152;28;20022;-58
2022/08/23 07:41:13;;;;;;;10.30;7.93;;;21.50;85.40;;;;;;5021901;28;20109;-57
2022/08/23 07:43:40;;;;;;;11.75;8.93;;;21.60;85.30;;;;;;5013585;28;20018;-57
2022/08/23 07:46:07;;;;;;;12.45;10.43;;;21.70;85.00;;;;;;5012457;28;20030;-57
2022/08/23 07:48:33;;;;;;;15.07;10.55;;;21.80;84.90;;;;;;5017850;28;20021;-57
2022/08/23 07:51:04;;;;;;;12.48;9.32;;;21.90;84.60;;;;;;5019309;28;20018;-58
2022/08/23 07:53:30;;;;;;;12.38;9.10;;;21.90;84.30;;;;;;5024974;28;20037;-57
2022/08/23 07:55:56;;;;;;;11.32;8.05;;;22.00;84.30;;;;;;5018913;28;20366;-58
2022/08/23 07:58:23;;;;;;;10.63;6.78;;;22.10;84.00;;;;;;5031424;28;20087;-58
2022/08/23 08:00:50;;;;;;;8.48;5.57;;;22.20;83.80;;;;;;5031249;28;20025;-58
2022/08/23 08:03:16;;;;;;;12.45;8.23;;;22.30;83.40;;;;;;5017302;28;20033;-57
2022/08/23 08:05:42;;;;;;;8.73;6.53;;;22.40;81.70;;;;;;5035269;28;20022;-57
2022/08/23 08:08:08;;;;;;;6.97;5.00;;;22.50;81.00;;;;;;5021810;28;20390;-57
2022/08/23 08:10:39;;;;;;;5.82;4.57;;;22.60;80.90;;;;;;5035327;28;20418;-57
2022/08/23 08:13:05;;;;;;;4.57;3.80;;;22.70;80.70;;;;;;5020122;28;20069;-57
2022/08/23 08:15:31;;;;;;;6.88;4.50;;;22.80;80.60;;;;;;5016431;28;20088;-57
2022/08/23 08:17:57;;;;;;;7.20;5.85;;;22.90;80.70;;;;;;5016437;28;20034;-58
2022/08/23 08:20:25;;;;;;;9.88;7.22;;;23.00;79.50;;;;;;5023786;28;20033;-58
2022/08/23 08:22:51;;;;;;;9.02;4.93;;;23.00;78.80;;;;;;5034503;28;20105;-57
2022/08/23 08:25:16;;;;;;;8.80;5.20;;;23.10;78.80;;;;;;5025938;28;20034;-57
2022/08/23 08:27:43;;;;;;;12.00;8.68;;;23.20;78.50;;;;;;5035595;28;20072;-58
2022/08/23 08:30:10;;;;;;;15.57;10.38;;;23.30;77.90;;;;;;5023815;28;20026;-57
2022/08/23 08:32:36;;;;;;;11.90;7.78;;;23.40;76.70;;;;;;5014898;28;20390;-58
2022/08/23 08:35:02;;;;;;;13.68;8.10;;;23.40;76.60;;;;;;5015057;28;20113;-57
2022/08/23 08:37:29;;;;;;;11.45;5.50;;;23.50;76.10;;;;;;5022182;28;20057;-57
2022/08/23 08:39:55;;;;;;;7.13;4.60;;;23.60;76.10;;;;;;5031347;28;20072;-58
2022/08/23 08:42:56;;;;;;;11.75;7.30;;;23.70;75.90;;;;;;5032074;28;20057;-58
2022/08/23 08:45:31;;;;;;;6.70;4.97;;;23.90;74.50;;;;;;5028700;28;20390;-58
2022/08/23 08:48:05;;;;;;;11.38;6.65;;;24.00;74.60;;;;;;5030626;28;20025;-57
2022/08/23 08:50:40;;;;;;;8.50;5.60;;;24.10;73.90;;;;;;5017110;28;20611;-58
2022/08/23 08:53:13;;;;;;;12.52;8.18;;;24.20;73.30;;;;;;5024118;28;20073;-57
2022/08/23 08:55:57;;;;;;;8.23;4.68;;;24.30;72.30;;;;;;5028985;28;20022;-57
2022/08/23 08:58:44;;;;;;;11.55;7.38;;;24.40;72.20;;;;;;5021222;28;20037;-57
2022/08/23 09:01:10;;;;;;;12.60;5.85;;;24.50;71.30;;;;;;5023736;28;20030;-58
2022/08/23 09:03:36;;;;;;;7.95;6.65;;;24.60;71.00;;;;;;5026746;28;20104;-57
2022/08/23 09:06:46;;;;;;;9.73;6.20;;;24.70;70.70;;;;;;5030114;28;20025;-57
2022/08/23 09:09:37;;;;;;;10.82;6.28;;;24.90;70.20;;;;;;5030830;28;20025;-57
2022/08/23 09:12:08;;;;;;;8.00;6.40;;;24.90;69.60;;;;;;5023273;28;20014;-57
2022/08/23 09:14:39;;;;;;;8.93;4.68;;;25.00;69.20;;;;;;5029136;28;20018;-57
2022/08/23 09:17:20;;;;;;;8.20;4.53;;;25.00;68.90;;;;;;5030145;28;20385;-57
2022/08/23 09:19:49;;;;;;;4.88;4.05;;;25.20;69.30;;;;;;5030634;28;20028;-57
2022/08/23 09:22:27;;;;;;;8.88;5.03;;;25.30;68.90;;;;;;5028842;28;20018;-57
2022/08/23 09:24:52;;;;;;;10.90;7.28;;;25.40;68.70;;;;;;5029973;28;20096;-57
2022/08/23 09:27:18;;;;;;;7.53;5.32;;;25.50;66.80;;;;;;5027912;28;20529;-58
2022/08/23 09:29:56;;;;;;;5.07;4.35;;;25.60;67.20;;;;;;5023358;28;20549;-57
2022/08/23 09:32:34;;;;;;;9.57;7.20;;;25.80;67.10;;;;;;5008610;28;20083;-58
2022/08/23 09:35:16;;;;;;;11.57;7.40;;;25.90;65.10;;;;;;5028842;28;20094;-57
2022/08/23 09:38:01;;;;;;;7.85;3.75;;;25.90;64.50;;;;;;5016149;28;20267;-57
2022/08/23 09:40:47;;;;;;;10.93;3.53;;;26.00;64.70;;;;;;5017008;28;20108;-58
2022/08/23 09:43:16;;;;;;;4.93;2.92;;;26.20;64.90;;;;;;5020297;28;20065;-57
2022/08/23 09:45:53;;;;;;;5.20;3.10;;;26.30;64.80;;;;;;5033422;28;20025;-58
2022/08/23 09:48:31;;;;;;;3.97;2.47;;;26.60;64.30;;;;;;5015927;28;20125;-57
2022/08/23 09:51:10;;;;;;;4.50;2.70;;;26.70;63.50;;;;;;5025805;28;20025;-58
2022/08/23 09:53:35;;;;;;;4.15;2.30;;;26.90;63.40;;;;;;5026308;28;20500;-58
2022/08/23 09:56:13;;;;;;;3.05;1.88;;;27.10;63.10;;;;;;5013695;28;20073;-58
2022/08/23 09:58:42;;;;;;;6.80;2.65;;;27.30;62.30;;;;;;5013415;28;20507;-58
2022/08/23 10:01:24;;;;;;;5.28;2.05;;;27.40;61.20;;;;;;5013832;28;20076;-58
2022/08/23 10:04:11;;;;;;;6.15;3.03;;;27.50;60.90;;;;;;5018868;28;20405;-57
2022/08/23 10:06:39;;;;;;;7.25;2.10;;;27.50;59.40;;;;;;5027566;28;20079;-58
2022/08/23 10:09:06;;;;;;;4.97;2.97;;;27.50;60.10;;;;;;5029418;28;20798;-58
2022/08/23 10:11:38;;;;;;;8.35;2.92;;;27.60;59.70;;;;;;5028278;28;20498;-57
2022/08/23 10:14:04;;;;;;;5.78;2.00;;;27.70;59.80;;;;;;5040826;28;20390;-58
2022/08/23 10:16:46;;;;;;;5.97;2.50;;;27.90;60.00;;;;;;5022546;28;20030;-58
2022/08/23 10:19:26;;;;;;;4.00;2.25;;;28.00;59.60;;;;;;5019458;28;20053;-58
2022/08/23 10:22:09;;;;;;;8.27;2.33;;;28.10;58.90;;;;;;5030688;28;20025;-58
2022/08/23 10:24:40;;;;;;;4.63;1.75;;;28.30;58.90;;;;;;5027206;28;20542;-58
2022/08/23 10:30:17;;;;;;;4.72;2.05;;;28.70;58.50;;;;;;5020100;28;20025;-58
2022/08/23 10:32:48;;;;;;;4.97;2.38;;;28.80;57.60;;;;;;5021651;28;20160;-58
2022/08/23 10:35:30;;;;;;;6.05;2.90;;;29.00;57.30;;;;;;5029734;28;20033;-58
2022/08/23 10:38:28;;;;;;;6.97;2.90;;;29.00;56.30;;;;;;5012764;28;20037;-58
2022/08/23 10:40:56;;;;;;;5.18;2.15;;;29.10;56.10;;;;;;5025602;28;20025;-57
2022/08/23 10:43:44;;;;;;;2.90;1.60;;;29.20;56.20;;;;;;5017355;28;20056;-58
2022/08/23 10:46:10;;;;;;;4.68;1.63;;;29.40;56.10;;;;;;5013065;28;20475;-58
2022/08/23 10:48:42;;;;;;;4.35;1.73;;;29.60;56.10;;;;;;5028816;28;20029;-58
2022/08/23 10:51:20;;;;;;;5.45;2.03;;;29.80;55.40;;;;;;5019851;28;20430;-58
2022/08/23 10:53:58;;;;;;;5.40;1.60;;;30.00;55.40;;;;;;5024518;28;20034;-58
2022/08/23 10:56:25;;;;;;;5.05;1.95;;;30.20;55.20;;;;;;5019523;28;20481;-58
2022/08/23 10:58:59;;;;;;;4.57;1.50;;;30.40;55.20;;;;;;5028558;28;20076;-58
2022/08/23 11:01:42;;;;;;;4.28;2.00;;;30.70;55.40;;;;;;5019853;28;20042;-57
2022/08/23 11:04:39;;;;;;;3.08;1.55;;;30.90;54.20;;;;;;5026582;28;20555;-57
2022/08/23 11:07:40;;;;;;;3.70;1.52;;;31.00;54.40;;;;;;5024666;28;20442;-57
2022/08/23 11:10:15;;;;;;;2.88;1.17;;;31.80;55.20;;;;;;5030166;28;20041;-57
2022/08/23 11:13:08;;;;;;;6.00;1.55;;;33.70;53.60;;;;;;5021764;28;20022;-58
2022/08/23 11:15:44;;;;;;;3.28;1.45;;;35.60;50.70;;;;;;5028770;28;20025;-57
2022/08/23 11:18:41;;;;;;;4.63;1.55;;;37.00;48.30;;;;;;5024451;28;20033;-57
2022/08/23 11:21:32;;;;;;;3.92;1.42;;;37.40;44.90;;;;;;5026393;28;20029;-58
2022/08/23 11:23:58;;;;;;;3.58;1.40;;;38.10;44.30;;;;;;5040876;28;20021;-58
2022/08/23 11:26:32;;;;;;;2.58;1.60;;;38.30;42.20;;;;;;5034092;28;20018;-58
2022/08/23 11:29:09;;;;;;;3.75;1.52;;;38.30;43.00;;;;;;5030386;28;20025;-57
2022/08/23 11:31:39;;;;;;;3.70;1.80;;;37.90;42.90;;;;;;5027462;28;20018;-58
2022/08/23 11:34:18;;;;;;;2.15;1.25;;;37.10;43.40;;;;;;5028568;28;20037;-59
2022/08/23 11:37:18;;;;;;;2.25;1.08;;;36.70;44.10;;;;;;5031924;28;20026;-58
2022/08/23 11:39:59;;;;;;;1.92;0.82;;;36.50;44.40;;;;;;5028225;28;20079;-58
2022/08/23 11:42:36;;;;;;;3.92;1.60;;;36.30;44.60;;;;;;5034196;28;20045;-59
2022/08/23 11:45:39;;;;;;;2.87;1.53;;;35.70;43.40;;;;;;5030022;28;20026;-58
2022/08/23 11:48:40;;;;;;;2.38;1.33;;;35.30;43.50;;;;;;5016584;28;20029;-58
2022/08/23 11:51:27;;;;;;;5.85;2.13;;;35.50;43.80;;;;;;5031716;28;20497;-58
2022/08/23 11:54:11;;;;;;;5.25;2.20;;;34.60;42.50;;;;;;5027509;28;20029;-58
2022/08/23 11:57:07;;;;;;;5.10;1.60;;;33.60;43.40;;;;;;5031835;28;20060;-58
2022/08/23 12:00:07;;;;;;;3.25;1.50;;;32.90;44.70;;;;;;5032707;28;20492;-58
2022/08/23 12:03:00;;;;;;;4.20;1.70;;;32.60;45.10;;;;;;5028029;28;20022;-58
2022/08/23 12:06:01;;;;;;;4.00;1.55;;;32.50;45.90;;;;;;5027940;28;20044;-58
2022/08/23 12:08:52;;;;;;;4.57;1.35;;;32.60;45.60;;;;;;5029556;28;20030;-58
2022/08/23 12:11:19;;;;;;;2.85;1.15;;;33.00;45.70;;;;;;5030534;28;20104;-58
2022/08/23 12:13:46;;;;;;;2.47;1.13;;;33.40;45.20;;;;;;5046685;28;20025;-59
2022/08/23 12:16:12;;;;;;;3.15;1.83;;;33.60;44.90;;;;;;5033818;28;20563;-58
2022/08/23 12:18:47;;;;;;;3.55;1.20;;;33.90;44.60;;;;;;5034918;28;20025;-59
2022/08/23 12:21:37;;;;;;;3.00;1.30;;;34.40;44.30;;;;;;5025986;28;20112;-58
2022/08/23 12:24:15;;;;;;;2.67;1.25;;;34.80;43.80;;;;;;5033050;28;20500;-58
2022/08/23 12:26:51;;;;;;;3.63;1.40;;;34.80;43.20;;;;;;5031885;28;20025;-59
2022/08/23 12:30:16;;;;;;;3.30;1.50;;;34.20;42.30;;;;;;5065483;28;20375;-55
2022/08/23 12:33:05;;;;;;;4.93;1.70;;;33.60;43.90;;;;;;5052794;28;20025;-56
2022/08/23 12:35:57;;;;;;;3.10;1.35;;;33.30;44.50;;;;;;5054965;28;20029;-57
2022/08/23 12:38:38;;;;;;;3.60;1.42;;;33.20;45.20;;;;;;5054056;28;20420;-57
2022/08/23 12:41:19;;;;;;;3.75;1.25;;;33.20;45.30;;;;;;5054875;28;20039;-58
2022/08/23 12:43:58;;;;;;;6.32;1.65;;;33.40;45.10;;;;;;5052329;28;20363;-57
2022/08/23 12:46:36;;;;;;;2.50;1.23;;;33.30;45.20;;;;;;5049627;28;20021;-58
2022/08/23 12:49:04;;;;;;;2.35;1.10;;;33.50;44.70;;;;;;5046585;28;20104;-58
2022/08/23 12:51:30;;;;;;;6.47;1.67;;;33.70;44.50;;;;;;5057840;28;20021;-57
2022/08/23 12:53:55;;;;;;;14.35;1.77;;;33.90;44.20;;;;;;5055947;28;20021;-58
2022/08/23 12:56:28;;;;;;;4.65;1.13;;;33.60;44.70;;;;;;5053003;28;20024;-59
2022/08/23 12:59:03;;;;;;;2.78;1.10;;;33.60;45.10;;;;;;5051937;28;20104;-60
2022/08/23 13:01:32;;;;;;;4.50;1.10;;;33.70;45.10;;;;;;5062952;28;20028;-59
2022/08/23 13:04:07;;;;;;;2.65;0.88;;;33.80;44.90;;;;;;5052682;28;20029;-59
2022/08/23 13:06:43;;;;;;;2.83;1.08;;;33.90;44.90;;;;;;5056436;28;20438;-59
2022/08/23 13:09:17;;;;;;;2.08;0.82;;;33.70;44.50;;;;;;5047862;28;20029;-59
2022/08/23 13:11:43;;;;;;;2.40;0.80;;;33.70;44.70;;;;;;5061571;28;20051;-59
2022/08/23 13:14:26;;;;;;;3.53;1.17;;;33.80;44.80;;;;;;5061719;28;20381;-60
2022/08/23 13:16:52;;;;;;;2.63;0.88;;;34.00;44.30;;;;;;5041412;28;20029;-59